sensor_id;sensor_type;location;lat;lon;timestamp;temperature;humidity
6986;DHT22;3533;51.246;6.850;2023-12-20T00:00:21;19.10;43.90
6986;DHT22;3533;51.246;6.850;2023-12-20T00:02:47;19.10;43.90
6986;DHT22;3533;51.246;6.850;2023-12-20T00:05:14;19.10;43.90
6986;DHT22;3533;51.246;6.850;2023-12-20T00:07:39;19.10;43.90
6986;DHT22;3533;51.246;6.850;2023-12-20T00:10:05;19.10;43.80
6986;DHT22;3533;51.246;6.850;2023-12-20T00:12:31;19.10;43.90
6986;DHT22;3533;51.246;6.850;2023-12-20T00:14:56;19.10;43.90
6986;DHT22;3533;51.246;6.850;2023-12-20T00:17:22;19.10;43.90
6986;DHT22;3533;51.246;6.850;2023-12-20T00:19:47;19.10;43.90
6986;DHT22;3533;51.246;6.850;2023-12-20T00:22:13;19.10;43.90
6986;DHT22;3533;51.246;6.850;2023-12-20T00:24:38;19.10;43.90
6986;DHT22;3533;51.246;6.850;2023-12-20T00:27:04;19.10;43.90
6986;DHT22;3533;51.246;6.850;2023-12-20T00:29:30;19.10;44.00
6986;DHT22;3533;51.246;6.850;2023-12-20T00:31:55;19.10;43.80
6986;DHT22;3533;51.246;6.850;2023-12-20T00:34:21;19.10;43.90
6986;DHT22;3533;51.246;6.850;2023-12-20T00:36:46;19.10;43.90
6986;DHT22;3533;51.246;6.850;2023-12-20T00:39:12;19.10;43.90
6986;DHT22;3533;51.246;6.850;2023-12-20T00:41:38;19.10;43.80
6986;DHT22;3533;51.246;6.850;2023-12-20T00:44:04;19.10;43.90
6986;DHT22;3533;51.246;6.850;2023-12-20T00:46:29;19.10;43.90
6986;DHT22;3533;51.246;6.850;2023-12-20T00:48:55;19.10;43.90
6986;DHT22;3533;51.246;6.850;2023-12-20T00:51:20;19.10;43.90
6986;DHT22;3533;51.246;6.850;2023-12-20T00:53:48;19.10;43.90
6986;DHT22;3533;51.246;6.850;2023-12-20T00:56:14;19.10;44.00
6986;DHT22;3533;51.246;6.850;2023-12-20T00:58:40;19.10;43.90
6986;DHT22;3533;51.246;6.850;2023-12-20T01:01:06;19.10;44.00
6986;DHT22;3533;51.246;6.850;2023-12-20T01:03:31;19.10;43.90
6986;DHT22;3533;51.246;6.850;2023-12-20T01:05:57;19.10;43.90
6986;DHT22;3533;51.246;6.850;2023-12-20T01:08:22;19.10;43.90
6986;DHT22;3533;51.246;6.850;2023-12-20T01:10:48;19.00;43.80
6986;DHT22;3533;51.246;6.850;2023-12-20T01:13:14;19.10;43.90
6986;DHT22;3533;51.246;6.850;2023-12-20T01:15:39;19.10;43.90
6986;DHT22;3533;51.246;6.850;2023-12-20T01:18:05;19.10;43.90
6986;DHT22;3533;51.246;6.850;2023-12-20T01:20:30;19.10;43.90
6986;DHT22;3533;51.246;6.850;2023-12-20T01:22:56;19.10;43.90
6986;DHT22;3533;51.246;6.850;2023-12-20T01:25:22;19.10;43.80
6986;DHT22;3533;51.246;6.850;2023-12-20T01:27:47;19.10;43.90
6986;DHT22;3533;51.246;6.850;2023-12-20T01:30:13;19.10;43.90
6986;DHT22;3533;51.246;6.850;2023-12-20T01:32:39;19.10;43.90
6986;DHT22;3533;51.246;6.850;2023-12-20T01:35:04;19.10;43.90
6986;DHT22;3533;51.246;6.850;2023-12-20T01:37:30;19.10;44.00
6986;DHT22;3533;51.246;6.850;2023-12-20T01:39:56;19.10;43.90
6986;DHT22;3533;51.246;6.850;2023-12-20T01:42:21;19.10;43.80
6986;DHT22;3533;51.246;6.850;2023-12-20T01:44:47;19.10;43.90
6986;DHT22;3533;51.246;6.850;2023-12-20T01:47:13;19.10;43.80
6986;DHT22;3533;51.246;6.850;2023-12-20T01:49:39;19.10;43.90
6986;DHT22;3533;51.246;6.850;2023-12-20T01:52:05;19.10;43.90
6986;DHT22;3533;51.246;6.850;2023-12-20T01:54:31;19.10;43.90
6986;DHT22;3533;51.246;6.850;2023-12-20T01:56:57;19.10;43.90
6986;DHT22;3533;51.246;6.850;2023-12-20T01:59:23;19.10;43.90
6986;DHT22;3533;51.246;6.850;2023-12-20T02:01:48;19.10;43.90
6986;DHT22;3533;51.246;6.850;2023-12-20T02:04:15;19.10;43.90
6986;DHT22;3533;51.246;6.850;2023-12-20T02:06:40;19.10;43.90
6986;DHT22;3533;51.246;6.850;2023-12-20T02:09:07;19.10;43.90
6986;DHT22;3533;51.246;6.850;2023-12-20T02:11:33;19.10;43.80
6986;DHT22;3533;51.246;6.850;2023-12-20T02:14:00;19.10;43.90
6986;DHT22;3533;51.246;6.850;2023-12-20T02:16:26;19.00;43.80
6986;DHT22;3533;51.246;6.850;2023-12-20T02:18:53;19.10;43.90
6986;DHT22;3533;51.246;6.850;2023-12-20T02:21:31;19.10;43.90
6986;DHT22;3533;51.246;6.850;2023-12-20T02:23:57;19.10;43.90
6986;DHT22;3533;51.246;6.850;2023-12-20T02:26:22;19.10;43.90
6986;DHT22;3533;51.246;6.850;2023-12-20T02:28:48;19.10;43.90
6986;DHT22;3533;51.246;6.850;2023-12-20T02:31:14;19.10;43.80
6986;DHT22;3533;51.246;6.850;2023-12-20T02:33:39;19.10;43.90
6986;DHT22;3533;51.246;6.850;2023-12-20T02:36:07;19.10;43.90
6986;DHT22;3533;51.246;6.850;2023-12-20T02:38:33;19.10;43.90
6986;DHT22;3533;51.246;6.850;2023-12-20T02:40:59;19.10;43.90
6986;DHT22;3533;51.246;6.850;2023-12-20T02:43:24;19.10;43.90
6986;DHT22;3533;51.246;6.850;2023-12-20T02:45:50;19.10;43.90
6986;DHT22;3533;51.246;6.850;2023-12-20T02:48:15;19.10;43.90
6986;DHT22;3533;51.246;6.850;2023-12-20T02:50:41;19.10;43.90
6986;DHT22;3533;51.246;6.850;2023-12-20T02:53:06;19.10;43.80
6986;DHT22;3533;51.246;6.850;2023-12-20T02:55:32;19.10;44.60
6986;DHT22;3533;51.246;6.850;2023-12-20T02:57:57;19.10;43.90
6986;DHT22;3533;51.246;6.850;2023-12-20T03:00:23;19.00;43.80
6986;DHT22;3533;51.246;6.850;2023-12-20T03:02:49;19.10;43.90
6986;DHT22;3533;51.246;6.850;2023-12-20T03:05:15;19.00;43.80
6986;DHT22;3533;51.246;6.850;2023-12-20T03:07:40;19.10;43.90
6986;DHT22;3533;51.246;6.850;2023-12-20T03:10:06;19.10;43.90
6986;DHT22;3533;51.246;6.850;2023-12-20T03:12:33;19.10;43.90
6986;DHT22;3533;51.246;6.850;2023-12-20T03:14:59;19.10;43.90
6986;DHT22;3533;51.246;6.850;2023-12-20T03:17:24;19.00;43.80
6986;DHT22;3533;51.246;6.850;2023-12-20T03:19:50;19.00;43.80
6986;DHT22;3533;51.246;6.850;2023-12-20T03:22:15;19.10;43.90
6986;DHT22;3533;51.246;6.850;2023-12-20T03:24:41;19.10;43.90
6986;DHT22;3533;51.246;6.850;2023-12-20T03:27:06;19.00;43.80
6986;DHT22;3533;51.246;6.850;2023-12-20T03:29:32;19.00;43.80
6986;DHT22;3533;51.246;6.850;2023-12-20T03:31:57;19.00;43.80
6986;DHT22;3533;51.246;6.850;2023-12-20T03:34:23;19.00;43.80
6986;DHT22;3533;51.246;6.850;2023-12-20T03:36:48;19.00;43.80
6986;DHT22;3533;51.246;6.850;2023-12-20T03:39:14;19.00;43.80
6986;DHT22;3533;51.246;6.850;2023-12-20T03:41:39;19.00;44.00
6986;DHT22;3533;51.246;6.850;2023-12-20T03:44:05;19.00;43.80
6986;DHT22;3533;51.246;6.850;2023-12-20T03:46:31;19.00;43.80
6986;DHT22;3533;51.246;6.850;2023-12-20T03:48:57;19.00;43.80
6986;DHT22;3533;51.246;6.850;2023-12-20T03:51:22;19.00;43.80
6986;DHT22;3533;51.246;6.850;2023-12-20T03:53:48;19.00;43.80
6986;DHT22;3533;51.246;6.850;2023-12-20T03:56:13;19.00;43.80
6986;DHT22;3533;51.246;6.850;2023-12-20T03:58:39;19.00;43.80
6986;DHT22;3533;51.246;6.850;2023-12-20T04:01:09;19.00;43.80
6986;DHT22;3533;51.246;6.850;2023-12-20T04:03:37;19.00;43.80
6986;DHT22;3533;51.246;6.850;2023-12-20T04:06:03;19.10;43.90
6986;DHT22;3533;51.246;6.850;2023-12-20T04:08:28;19.10;43.90
6986;DHT22;3533;51.246;6.850;2023-12-20T04:10:54;19.00;43.80
6986;DHT22;3533;51.246;6.850;2023-12-20T04:13:19;19.00;43.80
6986;DHT22;3533;51.246;6.850;2023-12-20T04:15:45;19.00;43.80
6986;DHT22;3533;51.246;6.850;2023-12-20T04:18:10;19.00;43.80
6986;DHT22;3533;51.246;6.850;2023-12-20T04:20:36;19.00;43.80
6986;DHT22;3533;51.246;6.850;2023-12-20T04:23:01;19.00;43.90
6986;DHT22;3533;51.246;6.850;2023-12-20T04:25:27;19.00;43.80
6986;DHT22;3533;51.246;6.850;2023-12-20T04:27:52;19.00;43.80
6986;DHT22;3533;51.246;6.850;2023-12-20T04:30:18;19.10;43.90
6986;DHT22;3533;51.246;6.850;2023-12-20T04:32:43;19.10;43.90
6986;DHT22;3533;51.246;6.850;2023-12-20T04:35:09;19.10;43.90
6986;DHT22;3533;51.246;6.850;2023-12-20T04:37:35;19.10;43.90
6986;DHT22;3533;51.246;6.850;2023-12-20T04:40:00;19.10;43.80
6986;DHT22;3533;51.246;6.850;2023-12-20T04:42:26;19.00;43.80
6986;DHT22;3533;51.246;6.850;2023-12-20T04:44:52;19.10;43.90
6986;DHT22;3533;51.246;6.850;2023-12-20T04:47:17;19.10;43.90
6986;DHT22;3533;51.246;6.850;2023-12-20T04:49:43;19.10;43.90
6986;DHT22;3533;51.246;6.850;2023-12-20T04:52:09;19.10;43.90
6986;DHT22;3533;51.246;6.850;2023-12-20T04:54:34;19.10;43.80
6986;DHT22;3533;51.246;6.850;2023-12-20T04:57:00;19.10;43.80
6986;DHT22;3533;51.246;6.850;2023-12-20T04:59:25;19.10;43.70
6986;DHT22;3533;51.246;6.850;2023-12-20T05:01:51;19.10;43.70
6986;DHT22;3533;51.246;6.850;2023-12-20T05:04:17;19.10;43.70
6986;DHT22;3533;51.246;6.850;2023-12-20T05:06:42;19.10;43.80
6986;DHT22;3533;51.246;6.850;2023-12-20T05:09:08;19.10;43.60
6986;DHT22;3533;51.246;6.850;2023-12-20T05:11:34;19.10;43.50
6986;DHT22;3533;51.246;6.850;2023-12-20T05:14:00;19.10;43.50
6986;DHT22;3533;51.246;6.850;2023-12-20T05:16:25;19.20;43.50
6986;DHT22;3533;51.246;6.850;2023-12-20T05:18:51;19.20;43.40
6986;DHT22;3533;51.246;6.850;2023-12-20T05:21:17;19.20;43.30
6986;DHT22;3533;51.246;6.850;2023-12-20T05:23:43;19.30;43.40
6986;DHT22;3533;51.246;6.850;2023-12-20T05:26:08;19.30;43.20
6986;DHT22;3533;51.246;6.850;2023-12-20T05:28:34;19.30;43.20
6986;DHT22;3533;51.246;6.850;2023-12-20T05:30:59;19.20;43.10
6986;DHT22;3533;51.246;6.850;2023-12-20T05:33:25;19.30;43.20
6986;DHT22;3533;51.246;6.850;2023-12-20T05:35:50;19.30;43.10
6986;DHT22;3533;51.246;6.850;2023-12-20T05:38:16;19.30;43.10
6986;DHT22;3533;51.246;6.850;2023-12-20T05:40:42;19.30;43.20
6986;DHT22;3533;51.246;6.850;2023-12-20T05:43:07;19.30;43.20
6986;DHT22;3533;51.246;6.850;2023-12-20T05:45:33;19.30;43.20
6986;DHT22;3533;51.246;6.850;2023-12-20T05:47:58;19.30;43.10
6986;DHT22;3533;51.246;6.850;2023-12-20T05:50:24;19.30;44.00
6986;DHT22;3533;51.246;6.850;2023-12-20T05:52:49;19.30;43.20
6986;DHT22;3533;51.246;6.850;2023-12-20T05:55:15;19.30;43.20
6986;DHT22;3533;51.246;6.850;2023-12-20T05:57:41;19.30;43.20
6986;DHT22;3533;51.246;6.850;2023-12-20T06:00:09;19.30;43.20
6986;DHT22;3533;51.246;6.850;2023-12-20T06:02:34;19.30;43.20
6986;DHT22;3533;51.246;6.850;2023-12-20T06:05:03;19.30;43.20
6986;DHT22;3533;51.246;6.850;2023-12-20T06:07:29;19.30;43.20
6986;DHT22;3533;51.246;6.850;2023-12-20T06:09:55;19.30;43.10
6986;DHT22;3533;51.246;6.850;2023-12-20T06:12:20;19.30;43.20
6986;DHT22;3533;51.246;6.850;2023-12-20T06:14:46;19.30;43.10
6986;DHT22;3533;51.246;6.850;2023-12-20T06:17:11;19.30;43.20
6986;DHT22;3533;51.246;6.850;2023-12-20T06:19:37;19.30;43.20
6986;DHT22;3533;51.246;6.850;2023-12-20T06:22:06;19.30;43.20
6986;DHT22;3533;51.246;6.850;2023-12-20T06:24:31;19.30;43.10
6986;DHT22;3533;51.246;6.850;2023-12-20T06:26:59;19.30;43.20
6986;DHT22;3533;51.246;6.850;2023-12-20T06:29:24;19.30;43.20
6986;DHT22;3533;51.246;6.850;2023-12-20T06:31:50;19.30;43.20
6986;DHT22;3533;51.246;6.850;2023-12-20T06:34:15;19.30;43.10
6986;DHT22;3533;51.246;6.850;2023-12-20T06:36:41;19.30;43.10
6986;DHT22;3533;51.246;6.850;2023-12-20T06:39:06;19.30;43.20
6986;DHT22;3533;51.246;6.850;2023-12-20T06:41:32;19.30;43.20
6986;DHT22;3533;51.246;6.850;2023-12-20T06:43:57;19.30;43.20
6986;DHT22;3533;51.246;6.850;2023-12-20T06:46:23;19.30;43.20
6986;DHT22;3533;51.246;6.850;2023-12-20T06:48:48;19.30;43.20
6986;DHT22;3533;51.246;6.850;2023-12-20T06:51:15;19.30;43.20
6986;DHT22;3533;51.246;6.850;2023-12-20T06:53:41;19.30;43.20
6986;DHT22;3533;51.246;6.850;2023-12-20T06:56:06;19.30;43.20
6986;DHT22;3533;51.246;6.850;2023-12-20T06:58:32;19.30;43.20
6986;DHT22;3533;51.246;6.850;2023-12-20T07:00:58;19.30;43.20
6986;DHT22;3533;51.246;6.850;2023-12-20T07:03:23;19.30;43.20
6986;DHT22;3533;51.246;6.850;2023-12-20T07:05:49;19.30;43.20
6986;DHT22;3533;51.246;6.850;2023-12-20T07:08:14;19.30;43.20
6986;DHT22;3533;51.246;6.850;2023-12-20T07:10:41;19.30;43.20
6986;DHT22;3533;51.246;6.850;2023-12-20T07:13:07;19.20;43.00
6986;DHT22;3533;51.246;6.850;2023-12-20T07:15:33;19.30;43.20
6986;DHT22;3533;51.246;6.850;2023-12-20T07:17:58;19.30;43.20
6986;DHT22;3533;51.246;6.850;2023-12-20T07:20:26;19.30;43.20
6986;DHT22;3533;51.246;6.850;2023-12-20T07:22:51;19.30;43.20
6986;DHT22;3533;51.246;6.850;2023-12-20T07:25:17;19.30;43.20
6986;DHT22;3533;51.246;6.850;2023-12-20T07:27:43;19.30;43.20
6986;DHT22;3533;51.246;6.850;2023-12-20T07:30:09;19.30;43.20
6986;DHT22;3533;51.246;6.850;2023-12-20T07:32:34;19.30;43.20
6986;DHT22;3533;51.246;6.850;2023-12-20T07:35:00;19.30;43.20
6986;DHT22;3533;51.246;6.850;2023-12-20T07:37:25;19.30;43.20
6986;DHT22;3533;51.246;6.850;2023-12-20T07:39:51;19.30;43.20
6986;DHT22;3533;51.246;6.850;2023-12-20T07:42:17;19.30;43.20
6986;DHT22;3533;51.246;6.850;2023-12-20T07:44:42;19.30;43.20
6986;DHT22;3533;51.246;6.850;2023-12-20T07:47:08;19.20;43.10
6986;DHT22;3533;51.246;6.850;2023-12-20T07:49:33;19.20;43.10
6986;DHT22;3533;51.246;6.850;2023-12-20T07:51:59;19.30;43.20
6986;DHT22;3533;51.246;6.850;2023-12-20T07:54:24;19.30;43.20
6986;DHT22;3533;51.246;6.850;2023-12-20T07:56:50;19.30;43.20
6986;DHT22;3533;51.246;6.850;2023-12-20T07:59:15;19.30;43.20
6986;DHT22;3533;51.246;6.850;2023-12-20T08:01:41;19.20;43.10
6986;DHT22;3533;51.246;6.850;2023-12-20T08:04:08;19.30;43.30
6986;DHT22;3533;51.246;6.850;2023-12-20T08:06:33;19.20;43.20
6986;DHT22;3533;51.246;6.850;2023-12-20T08:08:59;19.20;43.20
6986;DHT22;3533;51.246;6.850;2023-12-20T08:11:24;19.20;43.20
6986;DHT22;3533;51.246;6.850;2023-12-20T08:13:50;19.20;43.20
6986;DHT22;3533;51.246;6.850;2023-12-20T08:16:16;19.20;44.00
6986;DHT22;3533;51.246;6.850;2023-12-20T08:18:43;19.20;43.20
6986;DHT22;3533;51.246;6.850;2023-12-20T08:21:08;19.20;43.20
6986;DHT22;3533;51.246;6.850;2023-12-20T08:23:34;19.30;43.30
6986;DHT22;3533;51.246;6.850;2023-12-20T08:26:07;19.20;43.20
6986;DHT22;3533;51.246;6.850;2023-12-20T08:28:33;19.20;43.20
6986;DHT22;3533;51.246;6.850;2023-12-20T08:30:59;19.20;43.20
6986;DHT22;3533;51.246;6.850;2023-12-20T08:33:25;19.20;43.30
6986;DHT22;3533;51.246;6.850;2023-12-20T08:35:50;19.20;43.30
6986;DHT22;3533;51.246;6.850;2023-12-20T08:38:16;19.20;43.30
6986;DHT22;3533;51.246;6.850;2023-12-20T08:40:43;19.20;43.30
6986;DHT22;3533;51.246;6.850;2023-12-20T08:43:08;19.20;43.30
6986;DHT22;3533;51.246;6.850;2023-12-20T08:45:34;19.20;43.30
6986;DHT22;3533;51.246;6.850;2023-12-20T08:47:59;19.20;43.30
6986;DHT22;3533;51.246;6.850;2023-12-20T08:50:25;19.20;43.40
6986;DHT22;3533;51.246;6.850;2023-12-20T08:52:51;19.20;43.50
6986;DHT22;3533;51.246;6.850;2023-12-20T08:55:16;19.20;43.40
6986;DHT22;3533;51.246;6.850;2023-12-20T08:57:43;19.20;43.50
6986;DHT22;3533;51.246;6.850;2023-12-20T09:00:09;19.20;43.50
6986;DHT22;3533;51.246;6.850;2023-12-20T09:02:35;19.20;43.50
6986;DHT22;3533;51.246;6.850;2023-12-20T09:05:02;19.20;43.50
6986;DHT22;3533;51.246;6.850;2023-12-20T09:07:27;19.20;43.50
6986;DHT22;3533;51.246;6.850;2023-12-20T09:09:56;19.20;43.50
6986;DHT22;3533;51.246;6.850;2023-12-20T09:12:21;19.20;43.50
6986;DHT22;3533;51.246;6.850;2023-12-20T09:14:48;19.20;43.50
6986;DHT22;3533;51.246;6.850;2023-12-20T09:17:13;19.20;43.50
6986;DHT22;3533;51.246;6.850;2023-12-20T09:19:39;19.20;43.50
6986;DHT22;3533;51.246;6.850;2023-12-20T09:22:05;19.20;43.50
6986;DHT22;3533;51.246;6.850;2023-12-20T09:24:31;19.20;43.60
6986;DHT22;3533;51.246;6.850;2023-12-20T09:26:57;19.20;43.50
6986;DHT22;3533;51.246;6.850;2023-12-20T09:29:23;19.20;43.50
6986;DHT22;3533;51.246;6.850;2023-12-20T09:31:50;19.20;43.60
6986;DHT22;3533;51.246;6.850;2023-12-20T09:34:16;19.20;43.50
6986;DHT22;3533;51.246;6.850;2023-12-20T09:36:42;19.20;43.50
6986;DHT22;3533;51.246;6.850;2023-12-20T09:39:15;19.20;43.50
6986;DHT22;3533;51.246;6.850;2023-12-20T09:41:45;19.20;43.50
6986;DHT22;3533;51.246;6.850;2023-12-20T09:44:16;19.20;43.50
6986;DHT22;3533;51.246;6.850;2023-12-20T09:46:46;19.20;44.20
6986;DHT22;3533;51.246;6.850;2023-12-20T09:49:14;19.20;43.50
6986;DHT22;3533;51.246;6.850;2023-12-20T09:51:41;19.20;43.50
6986;DHT22;3533;51.246;6.850;2023-12-20T09:54:07;19.20;43.50
6986;DHT22;3533;51.246;6.850;2023-12-20T09:56:33;19.20;43.50
6986;DHT22;3533;51.246;6.850;2023-12-20T09:58:59;19.20;43.50
6986;DHT22;3533;51.246;6.850;2023-12-20T10:01:25;19.20;43.50
6986;DHT22;3533;51.246;6.850;2023-12-20T10:03:54;19.20;43.50
6986;DHT22;3533;51.246;6.850;2023-12-20T10:06:21;19.20;43.50
6986;DHT22;3533;51.246;6.850;2023-12-20T10:08:47;19.10;43.40
6986;DHT22;3533;51.246;6.850;2023-12-20T10:11:13;19.10;43.30
6986;DHT22;3533;51.246;6.850;2023-12-20T10:13:40;19.10;43.40
6986;DHT22;3533;51.246;6.850;2023-12-20T10:16:08;19.10;43.40
6986;DHT22;3533;51.246;6.850;2023-12-20T10:18:34;19.10;43.30
6986;DHT22;3533;51.246;6.850;2023-12-20T10:21:00;19.10;43.30
6986;DHT22;3533;51.246;6.850;2023-12-20T10:23:26;19.10;43.30
6986;DHT22;3533;51.246;6.850;2023-12-20T10:25:56;19.10;43.30
6986;DHT22;3533;51.246;6.850;2023-12-20T10:28:22;19.10;43.30
6986;DHT22;3533;51.246;6.850;2023-12-20T10:30:52;19.10;43.30
6986;DHT22;3533;51.246;6.850;2023-12-20T10:33:27;19.10;43.30
6986;DHT22;3533;51.246;6.850;2023-12-20T10:35:57;19.10;43.30
6986;DHT22;3533;51.246;6.850;2023-12-20T10:38:23;19.10;43.20
6986;DHT22;3533;51.246;6.850;2023-12-20T10:40:54;19.10;43.20
6986;DHT22;3533;51.246;6.850;2023-12-20T10:43:20;19.10;43.20
6986;DHT22;3533;51.246;6.850;2023-12-20T10:45:46;19.10;43.20
6986;DHT22;3533;51.246;6.850;2023-12-20T10:48:11;19.10;43.20
6986;DHT22;3533;51.246;6.850;2023-12-20T10:50:38;19.10;43.20
6986;DHT22;3533;51.246;6.850;2023-12-20T10:53:06;19.10;43.20
6986;DHT22;3533;51.246;6.850;2023-12-20T10:55:32;19.10;43.20
6986;DHT22;3533;51.246;6.850;2023-12-20T10:58:01;19.10;43.20
6986;DHT22;3533;51.246;6.850;2023-12-20T11:00:29;19.10;43.10
6986;DHT22;3533;51.246;6.850;2023-12-20T11:03:00;19.10;43.10
6986;DHT22;3533;51.246;6.850;2023-12-20T11:10:40;19.10;43.10
6986;DHT22;3533;51.246;6.850;2023-12-20T11:13:17;19.10;43.10
6986;DHT22;3533;51.246;6.850;2023-12-20T11:15:45;19.10;43.10
6986;DHT22;3533;51.246;6.850;2023-12-20T11:18:11;19.10;43.20
6986;DHT22;3533;51.246;6.850;2023-12-20T11:20:38;19.10;43.20
6986;DHT22;3533;51.246;6.850;2023-12-20T11:23:05;19.10;43.10
6986;DHT22;3533;51.246;6.850;2023-12-20T11:25:46;19.10;43.20
6986;DHT22;3533;51.246;6.850;2023-12-20T11:28:12;19.10;43.10
6986;DHT22;3533;51.246;6.850;2023-12-20T11:30:52;19.10;43.20
6986;DHT22;3533;51.246;6.850;2023-12-20T11:33:22;19.10;43.20
6986;DHT22;3533;51.246;6.850;2023-12-20T11:35:48;19.10;43.10
6986;DHT22;3533;51.246;6.850;2023-12-20T11:38:14;19.10;43.10
6986;DHT22;3533;51.246;6.850;2023-12-20T11:40:42;19.10;43.00
6986;DHT22;3533;51.246;6.850;2023-12-20T11:43:08;19.10;43.00
6986;DHT22;3533;51.246;6.850;2023-12-20T11:45:33;19.10;42.90
6986;DHT22;3533;51.246;6.850;2023-12-20T11:48:02;19.10;43.00
6986;DHT22;3533;51.246;6.850;2023-12-20T11:50:28;19.10;42.90
6986;DHT22;3533;51.246;6.850;2023-12-20T11:52:55;19.10;43.00
6986;DHT22;3533;51.246;6.850;2023-12-20T11:55:22;19.10;43.00
6986;DHT22;3533;51.246;6.850;2023-12-20T11:57:50;19.10;43.00
6986;DHT22;3533;51.246;6.850;2023-12-20T12:00:16;19.10;43.00
6986;DHT22;3533;51.246;6.850;2023-12-20T12:02:42;19.10;43.00
6986;DHT22;3533;51.246;6.850;2023-12-20T12:05:07;19.10;43.00
6986;DHT22;3533;51.246;6.850;2023-12-20T12:07:34;19.10;43.00
6986;DHT22;3533;51.246;6.850;2023-12-20T12:10:00;19.10;43.00
6986;DHT22;3533;51.246;6.850;2023-12-20T12:12:26;19.10;43.00
6986;DHT22;3533;51.246;6.850;2023-12-20T12:14:52;19.10;43.00
6986;DHT22;3533;51.246;6.850;2023-12-20T12:17:18;19.10;43.00
6986;DHT22;3533;51.246;6.850;2023-12-20T12:19:44;19.10;42.90
6986;DHT22;3533;51.246;6.850;2023-12-20T12:22:11;19.10;42.80
6986;DHT22;3533;51.246;6.850;2023-12-20T12:24:46;19.10;42.90
6986;DHT22;3533;51.246;6.850;2023-12-20T12:27:12;19.10;43.00
6986;DHT22;3533;51.246;6.850;2023-12-20T12:29:38;19.10;43.00
6986;DHT22;3533;51.246;6.850;2023-12-20T12:32:07;19.10;42.90
6986;DHT22;3533;51.246;6.850;2023-12-20T12:34:36;19.10;42.90
6986;DHT22;3533;51.246;6.850;2023-12-20T12:37:03;19.10;42.90
6986;DHT22;3533;51.246;6.850;2023-12-20T12:39:30;19.10;42.80
6986;DHT22;3533;51.246;6.850;2023-12-20T12:41:56;19.10;42.80
6986;DHT22;3533;51.246;6.850;2023-12-20T12:44:22;19.10;42.80
6986;DHT22;3533;51.246;6.850;2023-12-20T12:46:50;19.10;42.90
6986;DHT22;3533;51.246;6.850;2023-12-20T12:49:16;19.10;42.80
6986;DHT22;3533;51.246;6.850;2023-12-20T12:51:43;19.10;42.80
6986;DHT22;3533;51.246;6.850;2023-12-20T12:54:09;19.10;42.80
6986;DHT22;3533;51.246;6.850;2023-12-20T12:56:35;19.10;42.80
6986;DHT22;3533;51.246;6.850;2023-12-20T12:59:01;19.10;42.70
6986;DHT22;3533;51.246;6.850;2023-12-20T13:01:27;19.10;43.50
6986;DHT22;3533;51.246;6.850;2023-12-20T13:03:54;19.10;42.70
6986;DHT22;3533;51.246;6.850;2023-12-20T13:06:20;19.10;42.70
6986;DHT22;3533;51.246;6.850;2023-12-20T13:08:45;19.10;42.70
6986;DHT22;3533;51.246;6.850;2023-12-20T13:11:37;19.10;42.70
6986;DHT22;3533;51.246;6.850;2023-12-20T13:14:03;19.10;42.60
6986;DHT22;3533;51.246;6.850;2023-12-20T13:16:29;19.10;42.70
6986;DHT22;3533;51.246;6.850;2023-12-20T13:18:55;19.10;42.70
6986;DHT22;3533;51.246;6.850;2023-12-20T13:21:21;19.10;42.70
6986;DHT22;3533;51.246;6.850;2023-12-20T13:23:46;19.10;42.60
6986;DHT22;3533;51.246;6.850;2023-12-20T13:26:12;19.10;42.60
6986;DHT22;3533;51.246;6.850;2023-12-20T13:28:38;19.10;42.60
6986;DHT22;3533;51.246;6.850;2023-12-20T13:31:03;19.10;42.60
6986;DHT22;3533;51.246;6.850;2023-12-20T13:33:29;19.10;42.60
6986;DHT22;3533;51.246;6.850;2023-12-20T13:35:54;19.10;42.70
6986;DHT22;3533;51.246;6.850;2023-12-20T13:38:21;19.10;42.60
6986;DHT22;3533;51.246;6.850;2023-12-20T13:40:46;19.10;42.60
6986;DHT22;3533;51.246;6.850;2023-12-20T13:43:12;19.10;42.60
6986;DHT22;3533;51.246;6.850;2023-12-20T13:45:39;19.10;42.60
6986;DHT22;3533;51.246;6.850;2023-12-20T13:48:05;19.10;42.60
6986;DHT22;3533;51.246;6.850;2023-12-20T13:50:30;19.10;42.60
6986;DHT22;3533;51.246;6.850;2023-12-20T13:52:56;19.10;42.60
6986;DHT22;3533;51.246;6.850;2023-12-20T13:55:21;19.10;42.60
6986;DHT22;3533;51.246;6.850;2023-12-20T13:57:50;19.10;42.60
6986;DHT22;3533;51.246;6.850;2023-12-20T14:00:16;19.10;42.60
6986;DHT22;3533;51.246;6.850;2023-12-20T14:02:42;19.10;42.60
6986;DHT22;3533;51.246;6.850;2023-12-20T14:05:08;19.10;42.60
6986;DHT22;3533;51.246;6.850;2023-12-20T14:07:35;19.10;42.70
6986;DHT22;3533;51.246;6.850;2023-12-20T14:10:00;19.10;42.60
6986;DHT22;3533;51.246;6.850;2023-12-20T14:12:26;19.10;42.60
6986;DHT22;3533;51.246;6.850;2023-12-20T14:14:51;19.10;42.70
6986;DHT22;3533;51.246;6.850;2023-12-20T14:17:17;19.10;42.70
6986;DHT22;3533;51.246;6.850;2023-12-20T14:19:43;19.10;42.70
6986;DHT22;3533;51.246;6.850;2023-12-20T14:22:09;19.10;42.70
6986;DHT22;3533;51.246;6.850;2023-12-20T14:24:35;19.10;42.70
6986;DHT22;3533;51.246;6.850;2023-12-20T14:27:01;19.10;42.70
6986;DHT22;3533;51.246;6.850;2023-12-20T14:29:27;19.10;42.70
6986;DHT22;3533;51.246;6.850;2023-12-20T14:31:52;19.10;42.70
6986;DHT22;3533;51.246;6.850;2023-12-20T14:34:18;19.10;42.70
6986;DHT22;3533;51.246;6.850;2023-12-20T14:36:44;19.10;42.70
6986;DHT22;3533;51.246;6.850;2023-12-20T14:39:09;19.10;42.70
6986;DHT22;3533;51.246;6.850;2023-12-20T14:41:38;19.10;42.70
6986;DHT22;3533;51.246;6.850;2023-12-20T14:44:05;19.10;42.70
6986;DHT22;3533;51.246;6.850;2023-12-20T14:46:31;19.10;42.80
6986;DHT22;3533;51.246;6.850;2023-12-20T14:48:56;19.10;42.80
6986;DHT22;3533;51.246;6.850;2023-12-20T14:51:22;19.10;42.80
6986;DHT22;3533;51.246;6.850;2023-12-20T14:53:48;19.10;42.90
6986;DHT22;3533;51.246;6.850;2023-12-20T14:56:13;19.10;42.90
6986;DHT22;3533;51.246;6.850;2023-12-20T14:58:40;19.10;42.90
6986;DHT22;3533;51.246;6.850;2023-12-20T15:01:05;19.10;42.90
6986;DHT22;3533;51.246;6.850;2023-12-20T15:03:34;19.10;42.90
6986;DHT22;3533;51.246;6.850;2023-12-20T15:05:59;19.10;42.90
6986;DHT22;3533;51.246;6.850;2023-12-20T15:08:25;19.10;42.90
6986;DHT22;3533;51.246;6.850;2023-12-20T15:10:51;19.10;42.90
6986;DHT22;3533;51.246;6.850;2023-12-20T15:13:16;19.10;43.00
6986;DHT22;3533;51.246;6.850;2023-12-20T15:15:42;19.10;43.00
6986;DHT22;3533;51.246;6.850;2023-12-20T15:18:07;19.10;43.00
6986;DHT22;3533;51.246;6.850;2023-12-20T15:20:33;19.10;43.10
6986;DHT22;3533;51.246;6.850;2023-12-20T15:22:59;19.10;43.00
6986;DHT22;3533;51.246;6.850;2023-12-20T15:25:31;19.10;43.10
6986;DHT22;3533;51.246;6.850;2023-12-20T15:27:57;19.10;43.10
6986;DHT22;3533;51.246;6.850;2023-12-20T15:30:22;19.10;43.20
6986;DHT22;3533;51.246;6.850;2023-12-20T15:32:50;19.10;43.10
6986;DHT22;3533;51.246;6.850;2023-12-20T15:35:15;19.10;43.10
6986;DHT22;3533;51.246;6.850;2023-12-20T15:37:41;19.10;43.20
6986;DHT22;3533;51.246;6.850;2023-12-20T15:40:10;19.10;43.10
6986;DHT22;3533;51.246;6.850;2023-12-20T15:42:39;19.10;43.20
6986;DHT22;3533;51.246;6.850;2023-12-20T15:45:06;19.10;43.20
6986;DHT22;3533;51.246;6.850;2023-12-20T15:47:35;19.10;43.10
6986;DHT22;3533;51.246;6.850;2023-12-20T15:50:04;19.10;43.20
6986;DHT22;3533;51.246;6.850;2023-12-20T15:52:31;19.10;43.20
6986;DHT22;3533;51.246;6.850;2023-12-20T15:54:57;19.10;43.20
6986;DHT22;3533;51.246;6.850;2023-12-20T15:57:22;19.10;43.20
6986;DHT22;3533;51.246;6.850;2023-12-20T15:59:48;19.10;43.20